LFBY/XDA METAR and TAF weather

Enter ICAO airport designator
Station Type Date Time Source
LFBY METAR 2021/05/16 00:00 UTC NOAA

LFBY 160000Z AUTO 19004KT 2100 // ////// 14/14 Q1010


Station Type Date Time Source
LFBY Decoded METAR 2021/05/16 00:00 UTC NOAA

Dax, France (LFBY) 43-41N 001-04W 32M
May 15, 2021 - 08:00 PM EDT / 2021.05.16 0000 UTC
Wind: from the S (190 degrees) at 5 MPH (4 KT):0
Visibility: 1 mile(s):0
Temperature: 57 F (14 C)
Dew Point: 57 F (14 C)
Relative Humidity: 100%
Pressure (altimeter): 29.83 in. Hg (1010 hPa)
ob: LFBY 160000Z AUTO 19004KT 2100 // ////// 14/14 Q1010
cycle: 0

Station Type Date Time Source
LFBY TAF UTC NOAA

Error!

Example: see airport list